Time;durP1;ratioP1;P1;durP2;ratioP2;P2;SDS_P1;SDS_P2;PMS_P1;PMS_P2;Temp;Humidity;BMP_temperature;BMP_pressure;BME280_temperature;BME280_humidity;BME280_pressure;Samples;Min_cycle;Max_cycle;Signal;HPM_P1;HPM_P2
2023/10/23 00:02:05;;;;;;;;;;;;;;;14.92;73.10;100432.75;5442910;32;35220;-71
2023/10/23 00:05:07;;;;;;;;;;;;;;;15.26;72.25;100420.22;5439798;32;35442;-71
2023/10/23 00:08:10;;;;;;;;;;;;;;;15.23;72.19;100429.22;5443312;32;34325;-71
2023/10/23 00:11:20;;;;;;;;;;;;;;;15.52;70.76;100430.19;5427225;32;35390;-72
2023/10/23 00:14:22;;;;;;;;;;;;;;;15.56;70.49;100428.19;5435346;32;34826;-72
2023/10/23 00:17:24;;;;;;;;;;;;;;;14.73;74.65;100432.94;5427560;32;35423;-71
2023/10/23 00:20:27;;;;;;;;;;;;;;;14.54;75.59;100429.59;5439762;32;34067;-70
2023/10/23 00:23:29;;;;;;;;;;;;;;;14.49;76.62;100431.62;5446196;32;34303;-71
2023/10/23 00:26:31;;;;;;;;;;;;;;;14.37;75.79;100441.06;5443790;32;35603;-74
2023/10/23 00:29:33;;;;;;;;;;;;;;;14.44;76.02;100441.59;5445873;32;36858;-70
2023/10/23 00:32:35;;;;;;;;;;;;;;;14.70;75.08;100434.91;5428563;32;34820;-70
2023/10/23 00:35:38;;;;;;;;;;;;;;;15.04;73.60;100432.06;5448609;32;34901;-71
2023/10/23 00:38:40;;;;;;;;;;;;;;;15.05;73.50;100436.41;5421149;32;35168;-72
2023/10/23 00:41:44;;;;;;;;;;;;;;;15.21;72.69;100431.13;5426963;32;34272;-69
2023/10/23 00:44:46;;;;;;;;;;;;;;;15.64;69.83;100426.81;5431708;32;34244;-71
2023/10/23 00:47:48;;;;;;;;;;;;;;;15.30;70.75;100429.72;5426473;32;34337;-70
2023/10/23 00:50:52;;;;;;;;;;;;;;;14.59;74.91;100433.69;5427389;32;35167;-70
2023/10/23 00:53:54;;;;;;;;;;;;;;;14.26;77.48;100443.44;5411264;32;34438;-72
2023/10/23 00:56:56;;;;;;;;;;;;;;;14.95;74.65;100431.75;5441289;32;34652;-70
2023/10/23 00:59:58;;;;;;;;;;;;;;;15.27;71.96;100436.06;5442641;32;34593;-70
2023/10/23 01:03:01;;;;;;;;;;;;;;;15.17;72.69;100437.50;5435844;32;35376;-70
2023/10/23 01:06:03;;;;;;;;;;;;;;;14.69;74.55;100447.28;5427761;32;35015;-72
2023/10/23 01:09:05;;;;;;;;;;;;;;;14.44;77.39;100444.22;5440871;32;34945;-72
2023/10/23 01:12:07;;;;;;;;;;;;;;;14.72;76.51;100430.37;5445228;32;34370;-70
2023/10/23 01:15:10;;;;;;;;;;;;;;;15.44;72.26;100422.66;5427244;32;34348;-70
2023/10/23 01:18:12;;;;;;;;;;;;;;;14.72;76.00;100433.03;5442969;32;35614;-71
2023/10/23 01:21:14;;;;;;;;;;;;;;;15.68;71.11;100430.16;5428864;32;34506;-72
2023/10/23 01:24:16;;;;;;;;;;;;;;;14.78;73.55;100432.69;5426360;32;35496;-72
2023/10/23 01:27:18;;;;;;;;;;;;;;;14.55;76.49;100437.44;5441777;32;34885;-72
2023/10/23 01:30:21;;;;;;;;;;;;;;;15.20;73.43;100439.12;5440995;32;34986;-70
2023/10/23 01:33:23;;;;;;;;;;;;;;;15.10;73.42;100452.03;5439243;32;34882;-70
2023/10/23 01:36:25;;;;;;;;;;;;;;;15.06;72.68;100447.84;5440877;32;35320;-71
2023/10/23 01:39:27;;;;;;;;;;;;;;;14.38;76.76;100453.34;5438733;32;34486;-70
2023/10/23 01:42:33;;;;;;;;;;;;;;;14.83;74.76;100457.09;5422288;32;33859;-72
2023/10/23 01:45:35;;;;;;;;;;;;;;;15.11;71.49;100446.66;5424187;32;34440;-70
2023/10/23 01:48:38;;;;;;;;;;;;;;;14.14;77.25;100455.50;5424344;32;35241;-69
2023/10/23 01:51:40;;;;;;;;;;;;;;;14.25;76.93;100449.66;5440522;32;34655;-70
2023/10/23 01:54:43;;;;;;;;;;;;;;;14.33;76.79;100455.38;5445120;32;35069;-72
2023/10/23 01:57:45;;;;;;;;;;;;;;;14.26;76.36;100448.72;5439673;32;34543;-70
2023/10/23 02:00:47;;;;;;;;;;;;;;;14.22;76.99;100448.00;5423403;32;34898;-71
2023/10/23 02:03:50;;;;;;;;;;;;;;;13.77;79.64;100438.06;5430456;32;34586;-70
2023/10/23 02:06:52;;;;;;;;;;;;;;;14.23;77.59;100435.66;5422791;32;34541;-70
2023/10/23 02:09:56;;;;;;;;;;;;;;;14.02;78.19;100443.78;5447363;32;35663;-72
2023/10/23 02:12:59;;;;;;;;;;;;;;;14.24;77.43;100442.66;5440627;32;35423;-71
2023/10/23 02:16:01;;;;;;;;;;;;;;;13.94;78.49;100439.84;5445183;32;35062;-71
2023/10/23 02:19:03;;;;;;;;;;;;;;;14.58;75.06;100445.22;5424288;32;35839;-70
2023/10/23 02:22:05;;;;;;;;;;;;;;;15.04;72.52;100439.16;5442665;32;35174;-72
2023/10/23 02:25:08;;;;;;;;;;;;;;;15.31;70.29;100432.28;5446402;32;35966;-71
2023/10/23 02:28:10;;;;;;;;;;;;;;;14.48;73.16;100436.06;5441926;32;35284;-70
2023/10/23 02:31:12;;;;;;;;;;;;;;;14.45;74.11;100436.22;5432260;32;34494;-71
2023/10/23 02:34:14;;;;;;;;;;;;;;;13.99;76.55;100448.38;5437503;32;34791;-71
2023/10/23 02:37:16;;;;;;;;;;;;;;;14.56;75.18;100444.47;5441800;32;34989;-72
2023/10/23 02:40:19;;;;;;;;;;;;;;;14.31;75.42;100442.25;5427235;32;35060;-70
2023/10/23 02:43:21;;;;;;;;;;;;;;;14.02;77.59;100450.84;5441840;32;34537;-72
2023/10/23 02:46:23;;;;;;;;;;;;;;;14.19;76.80;100449.97;5431887;32;34957;-71
2023/10/23 02:49:25;;;;;;;;;;;;;;;14.02;77.54;100459.62;5427576;32;34880;-70
2023/10/23 02:52:28;;;;;;;;;;;;;;;14.46;76.25;100445.88;5430604;32;34628;-71
2023/10/23 02:55:30;;;;;;;;;;;;;;;15.12;71.57;100448.34;5441583;32;34964;-70
2023/10/23 02:58:34;;;;;;;;;;;;;;;15.08;71.49;100451.28;5446544;32;34876;-71
2023/10/23 03:01:37;;;;;;;;;;;;;;;14.60;73.27;100443.34;5439751;32;34463;-70
2023/10/23 03:04:40;;;;;;;;;;;;;;;13.93;77.57;100454.84;5439962;32;34384;-70
2023/10/23 03:07:42;;;;;;;;;;;;;;;13.87;78.56;100459.59;5431831;32;34232;-70
2023/10/23 03:10:44;;;;;;;;;;;;;;;14.54;75.53;100459.53;5427130;32;35280;-70
2023/10/23 03:13:46;;;;;;;;;;;;;;;14.61;74.99;100466.19;5445148;32;34563;-72
2023/10/23 03:16:49;;;;;;;;;;;;;;;14.80;73.11;100467.84;5441735;32;34902;-70
2023/10/23 03:19:51;;;;;;;;;;;;;;;14.69;74.06;100462.31;5444243;32;36403;-72
2023/10/23 03:22:53;;;;;;;;;;;;;;;14.17;76.23;100465.94;5439491;32;35081;-70
2023/10/23 03:25:56;;;;;;;;;;;;;;;13.78;78.16;100474.97;5445372;32;35302;-71
2023/10/23 03:28:58;;;;;;;;;;;;;;;14.36;76.22;100463.13;5446485;32;35531;-70
2023/10/23 03:32:00;;;;;;;;;;;;;;;14.06;76.58;100469.12;5441669;32;34355;-70
2023/10/23 03:35:03;;;;;;;;;;;;;;;13.84;78.79;100479.06;5446637;32;34761;-71
2023/10/23 03:38:05;;;;;;;;;;;;;;;14.13;77.20;100476.72;5440559;32;34351;-71
2023/10/23 03:41:07;;;;;;;;;;;;;;;13.67;79.60;100479.09;5431047;32;34720;-70
2023/10/23 03:44:09;;;;;;;;;;;;;;;14.48;76.08;100473.09;5443295;32;34302;-71
2023/10/23 03:47:12;;;;;;;;;;;;;;;14.19;77.57;100473.75;5441848;32;34690;-71
2023/10/23 03:50:14;;;;;;;;;;;;;;;13.86;78.18;100482.50;5433121;32;35010;-69
2023/10/23 03:53:16;;;;;;;;;;;;;;;13.51;79.80;100482.47;5441370;32;35103;-71
2023/10/23 03:56:18;;;;;;;;;;;;;;;13.82;78.62;100486.22;5445487;32;35080;-71
2023/10/23 03:59:20;;;;;;;;;;;;;;;13.76;78.46;100483.91;5426505;32;35289;-70
2023/10/23 04:02:22;;;;;;;;;;;;;;;13.19;81.14;100478.75;5441071;32;35032;-70
2023/10/23 04:05:25;;;;;;;;;;;;;;;13.39;81.33;100477.81;5428778;32;35667;-69
2023/10/23 04:08:27;;;;;;;;;;;;;;;13.61;80.48;100474.97;5440997;32;34310;-71
2023/10/23 04:11:29;;;;;;;;;;;;;;;14.24;76.82;100484.97;5445913;32;35058;-70
2023/10/23 04:14:31;;;;;;;;;;;;;;;14.49;74.56;100490.69;5441353;32;35082;-70
2023/10/23 04:17:33;;;;;;;;;;;;;;;14.54;73.16;100496.56;5439496;32;34929;-70
2023/10/23 04:20:35;;;;;;;;;;;;;;;14.21;74.41;100509.75;5427593;32;34566;-70
2023/10/23 04:23:38;;;;;;;;;;;;;;;13.67;77.58;100502.88;5442527;32;34363;-70
2023/10/23 04:26:40;;;;;;;;;;;;;;;13.51;79.39;100506.25;5434305;32;34985;-70
2023/10/23 04:29:42;;;;;;;;;;;;;;;13.12;82.14;100508.16;5440685;32;35070;-71
2023/10/23 04:32:44;;;;;;;;;;;;;;;13.49;80.14;100508.13;5443636;32;35282;-72
2023/10/23 04:35:50;;;;;;;;;;;;;;;13.48;79.18;100495.84;5438294;32;35373;-71
2023/10/23 04:38:52;;;;;;;;;;;;;;;13.34;81.04;100516.81;5418487;32;37056;-70
2023/10/23 04:41:54;;;;;;;;;;;;;;;13.04;82.46;100510.31;5441014;32;34812;-71
2023/10/23 04:44:56;;;;;;;;;;;;;;;12.97;83.03;100515.88;5443232;32;34849;-71
2023/10/23 04:47:58;;;;;;;;;;;;;;;13.31;82.24;100521.34;5444438;32;35426;-71
2023/10/23 04:51:00;;;;;;;;;;;;;;;13.73;80.27;100521.03;5414512;32;34819;-72
2023/10/23 04:54:02;;;;;;;;;;;;;;;13.23;80.93;100516.44;5440692;32;34407;-70
2023/10/23 04:57:05;;;;;;;;;;;;;;;13.04;82.39;100519.06;5440936;32;35740;-69
2023/10/23 05:00:07;;;;;;;;;;;;;;;13.32;81.08;100515.13;5430655;32;34778;-70
2023/10/23 05:03:09;;;;;;;;;;;;;;;12.86;83.72;100515.50;5438227;32;35801;-71
2023/10/23 05:06:11;;;;;;;;;;;;;;;13.21;81.93;100511.25;5441465;32;34239;-73
2023/10/23 05:09:13;;;;;;;;;;;;;;;13.75;79.23;100516.53;5444656;32;35635;-72
2023/10/23 05:12:15;;;;;;;;;;;;;;;13.65;77.91;100516.13;5440452;32;34086;-73
2023/10/23 05:15:18;;;;;;;;;;;;;;;13.82;77.36;100528.50;5444843;32;34808;-71
2023/10/23 05:18:20;;;;;;;;;;;;;;;13.51;79.46;100516.81;5439259;32;35067;-71
2023/10/23 05:21:22;;;;;;;;;;;;;;;13.40;80.48;100528.84;5430925;32;34867;-70
2023/10/23 05:24:24;;;;;;;;;;;;;;;13.30;80.77;100532.84;5437894;32;35928;-70
2023/10/23 05:27:28;;;;;;;;;;;;;;;13.96;77.66;100526.00;5445823;32;35405;-71
2023/10/23 05:30:30;;;;;;;;;;;;;;;13.88;77.74;100527.34;5445611;32;34521;-70
2023/10/23 05:33:32;;;;;;;;;;;;;;;13.80;79.17;100523.31;5447066;32;35702;-70
2023/10/23 05:36:34;;;;;;;;;;;;;;;13.99;77.22;100532.94;5428853;32;34704;-69
2023/10/23 05:39:36;;;;;;;;;;;;;;;13.55;79.57;100531.59;5435521;32;34403;-71
2023/10/23 05:42:38;;;;;;;;;;;;;;;13.65;79.53;100537.25;5445237;32;34804;-71
2023/10/23 05:45:40;;;;;;;;;;;;;;;13.77;79.82;100539.28;5407486;32;35054;-70
2023/10/23 05:48:42;;;;;;;;;;;;;;;14.27;76.31;100548.22;5422151;32;34574;-70
2023/10/23 05:51:44;;;;;;;;;;;;;;;13.31;79.00;100550.38;5438006;32;32651;-71
2023/10/23 05:54:46;;;;;;;;;;;;;;;13.28;80.32;100552.25;5439610;32;33941;-71
2023/10/23 05:57:48;;;;;;;;;;;;;;;14.42;74.98;100544.78;5444698;32;34753;-71
2023/10/23 06:00:50;;;;;;;;;;;;;;;14.41;73.06;100551.00;5415329;32;35026;-71
2023/10/23 06:03:53;;;;;;;;;;;;;;;13.66;78.57;100561.91;5442101;32;34290;-70
2023/10/23 06:06:55;;;;;;;;;;;;;;;13.51;78.22;100560.84;5429533;32;35163;-70
2023/10/23 06:09:58;;;;;;;;;;;;;;;13.98;77.08;100563.81;5440007;32;35434;-70
2023/10/23 06:13:00;;;;;;;;;;;;;;;14.59;74.45;100570.38;5430447;32;35149;-71
2023/10/23 06:16:04;;;;;;;;;;;;;;;14.51;74.80;100570.78;5439324;32;34685;-71
2023/10/23 06:19:06;;;;;;;;;;;;;;;15.09;72.06;100582.69;5443966;32;35574;-71
2023/10/23 06:22:08;;;;;;;;;;;;;;;15.00;69.94;100585.81;5439264;32;35646;-70
2023/10/23 06:25:13;;;;;;;;;;;;;;;15.39;69.61;100588.97;5429389;32;34671;-70
2023/10/23 06:28:15;;;;;;;;;;;;;;;16.20;66.70;100581.62;5440315;32;35511;-72
2023/10/23 06:31:17;;;;;;;;;;;;;;;16.14;65.82;100589.09;5439757;32;34824;-71
2023/10/23 06:34:19;;;;;;;;;;;;;;;15.89;66.67;100594.97;5450874;32;34877;-72
2023/10/23 06:37:21;;;;;;;;;;;;;;;16.41;64.84;100594.56;5436958;32;34419;-72
2023/10/23 06:40:23;;;;;;;;;;;;;;;16.33;64.58;100588.88;5429668;32;35379;-71
2023/10/23 06:43:25;;;;;;;;;;;;;;;16.50;65.27;100588.72;5438887;32;35416;-74
2023/10/23 06:46:27;;;;;;;;;;;;;;;15.87;66.19;100588.94;5443422;32;35661;-73
2023/10/23 06:49:29;;;;;;;;;;;;;;;15.95;67.57;100587.53;5434551;32;36315;-72
2023/10/23 06:52:31;;;;;;;;;;;;;;;17.41;62.21;100582.16;5429684;32;35451;-72
2023/10/23 06:55:33;;;;;;;;;;;;;;;17.30;62.13;100580.19;5427729;32;35475;-70
2023/10/23 06:58:35;;;;;;;;;;;;;;;16.88;62.49;100577.59;5436235;32;34196;-72
2023/10/23 07:01:37;;;;;;;;;;;;;;;18.28;58.93;100572.87;5422577;32;35737;-72
2023/10/23 07:04:47;;;;;;;;;;;;;;;17.81;59.90;100569.81;5434362;32;33341;-71
2023/10/23 07:07:49;;;;;;;;;;;;;;;17.20;61.75;100576.41;5428074;32;34908;-74
2023/10/23 07:10:50;;;;;;;;;;;;;;;17.57;61.28;100577.53;5434456;32;34288;-73
2023/10/23 07:13:54;;;;;;;;;;;;;;;17.63;61.21;100573.63;5438447;32;34863;-71
2023/10/23 07:16:55;;;;;;;;;;;;;;;18.60;58.69;100589.28;5421857;32;34431;-72
2023/10/23 07:19:58;;;;;;;;;;;;;;;18.49;57.32;100587.38;5440256;32;35279;-71
2023/10/23 07:23:00;;;;;;;;;;;;;;;18.22;57.50;100584.78;5427947;32;34446;-72
2023/10/23 07:26:03;;;;;;;;;;;;;;;18.86;55.87;100574.19;5437628;32;34896;-70
2023/10/23 07:29:05;;;;;;;;;;;;;;;18.10;59.08;100575.84;5442234;32;35097;-72
2023/10/23 07:32:06;;;;;;;;;;;;;;;16.87;62.75;100579.37;5435627;32;34489;-71
2023/10/23 07:35:08;;;;;;;;;;;;;;;17.21;61.12;100583.44;5419215;32;34860;-71
2023/10/23 07:38:10;;;;;;;;;;;;;;;16.69;63.71;100588.47;5419646;32;35500;-71
2023/10/23 07:41:12;;;;;;;;;;;;;;;16.31;64.70;100593.44;5438845;32;34862;-70
2023/10/23 07:44:14;;;;;;;;;;;;;;;17.20;60.69;100591.50;5442257;32;35220;-73
2023/10/23 07:47:17;;;;;;;;;;;;;;;17.42;60.65;100605.12;5438409;32;34890;-73
2023/10/23 07:50:21;;;;;;;;;;;;;;;17.01;62.28;100594.47;5427346;32;34915;-73
2023/10/23 07:53:23;;;;;;;;;;;;;;;16.52;63.79;100595.63;5429269;32;35192;-71
2023/10/23 07:56:25;;;;;;;;;;;;;;;16.64;63.65;100602.00;5441176;32;35014;-71
2023/10/23 07:59:27;;;;;;;;;;;;;;;16.82;63.24;100599.22;5444972;32;34401;-73
2023/10/23 08:02:29;;;;;;;;;;;;;;;16.16;65.39;100603.97;5434469;32;35138;-72
2023/10/23 08:05:31;;;;;;;;;;;;;;;16.99;62.41;100609.63;5414371;32;35158;-72
2023/10/23 08:08:36;;;;;;;;;;;;;;;17.00;62.65;100608.66;5441310;32;34466;-71
2023/10/23 08:11:38;;;;;;;;;;;;;;;17.55;58.69;100605.19;5427443;32;34671;-70
2023/10/23 08:14:40;;;;;;;;;;;;;;;18.01;57.43;100592.41;5442809;32;35457;-70
2023/10/23 08:17:42;;;;;;;;;;;;;;;17.58;58.52;100597.00;5440546;32;34834;-71
2023/10/23 08:20:44;;;;;;;;;;;;;;;18.14;56.63;100587.13;5444519;32;35199;-71
2023/10/23 08:23:52;;;;;;;;;;;;;;;17.92;56.44;100576.22;5438722;32;33810;-69
2023/10/23 08:26:56;;;;;;;;;;;;;;;17.23;58.47;100575.34;5424951;32;34771;-72
2023/10/23 08:29:58;;;;;;;;;;;;;;;17.37;58.35;100595.72;5436032;32;35309;-72
2023/10/23 08:33:00;;;;;;;;;;;;;;;16.81;60.72;100587.75;5437271;32;34793;-70
2023/10/23 08:36:03;;;;;;;;;;;;;;;16.79;60.31;100585.16;5442511;32;35058;-71
2023/10/23 08:39:05;;;;;;;;;;;;;;;17.38;58.65;100592.13;5433515;32;35669;-71
2023/10/23 08:42:07;;;;;;;;;;;;;;;16.93;59.28;100591.41;5443511;32;34892;-70
2023/10/23 08:45:09;;;;;;;;;;;;;;;16.91;60.10;100588.00;5420142;32;35436;-71
2023/10/23 08:48:11;;;;;;;;;;;;;;;17.23;59.96;100581.53;5422854;32;35632;-69
2023/10/23 08:51:13;;;;;;;;;;;;;;;17.20;59.78;100573.75;5421804;32;35633;-71
2023/10/23 08:54:18;;;;;;;;;;;;;;;18.12;56.00;100563.28;5423553;32;34456;-74
2023/10/23 08:57:20;;;;;;;;;;;;;;;17.71;57.99;100560.75;5436976;32;34771;-72
2023/10/23 09:00:23;;;;;;;;;;;;;;;18.83;54.01;100572.59;5416514;32;35075;-73
2023/10/23 09:03:25;;;;;;;;;;;;;;;17.92;57.31;100566.44;5425291;32;34552;-72
2023/10/23 09:06:47;;;;;;;;;;;;;;;18.33;55.90;100576.94;5418448;32;35234;-72
2023/10/23 09:09:49;;;;;;;;;;;;;;;19.11;53.15;100583.94;5431966;32;35313;-72
2023/10/23 09:12:54;;;;;;;;;;;;;;;18.82;54.88;100578.91;5438611;32;34598;-71
2023/10/23 09:15:56;;;;;;;;;;;;;;;18.87;54.18;100581.22;5435835;32;35636;-70
2023/10/23 09:18:58;;;;;;;;;;;;;;;20.23;48.70;100577.44;5421373;32;34655;-70
2023/10/23 09:22:00;;;;;;;;;;;;;;;19.05;50.79;100585.25;5429692;32;34486;-70
2023/10/23 09:25:02;;;;;;;;;;;;;;;19.54;49.63;100579.03;5440940;32;34329;-70
2023/10/23 09:28:09;;;;;;;;;;;;;;;19.42;48.62;100572.78;5433165;32;34768;-73
2023/10/23 09:31:11;;;;;;;;;;;;;;;19.96;47.66;100575.00;5430653;32;34985;-72
2023/10/23 09:34:16;;;;;;;;;;;;;;;19.45;48.12;100577.91;5442255;32;35434;-72
2023/10/23 09:37:17;;;;;;;;;;;;;;;19.46;48.76;100568.94;5433769;32;35029;-74
2023/10/23 09:40:19;;;;;;;;;;;;;;;19.54;48.70;100563.03;5419603;32;34703;-72
2023/10/23 09:43:23;;;;;;;;;;;;;;;19.92;48.32;100568.22;5437990;32;35746;-73
2023/10/23 09:46:28;;;;;;;;;;;;;;;19.91;48.54;100569.19;5435789;32;34846;-74
2023/10/23 09:49:30;;;;;;;;;;;;;;;20.73;44.55;100553.13;5437216;32;35154;-70
2023/10/23 09:52:33;;;;;;;;;;;;;;;20.46;45.95;100558.81;5421400;32;34860;-71
2023/10/23 09:55:36;;;;;;;;;;;;;;;20.41;46.17;100552.94;5427362;32;34254;-72
2023/10/23 09:58:37;;;;;;;;;;;;;;;20.70;43.90;100553.38;5433742;32;35212;-71
2023/10/23 10:01:40;;;;;;;;;;;;;;;20.86;43.34;100556.53;5424736;32;34847;-71
2023/10/23 10:04:54;;;;;;;;;;;;;;;20.44;44.28;100556.22;5435668;32;35185;-72
2023/10/23 10:07:56;;;;;;;;;;;;;;;20.60;43.08;100550.56;5422599;32;34335;-73
2023/10/23 10:10:58;;;;;;;;;;;;;;;22.09;40.93;100550.06;5436036;32;34454;-72
2023/10/23 10:13:59;;;;;;;;;;;;;;;22.11;40.97;100545.44;5419825;32;34855;-70
2023/10/23 10:17:01;;;;;;;;;;;;;;;22.60;39.43;100543.88;5442066;32;35142;-71
2023/10/23 10:20:05;;;;;;;;;;;;;;;23.56;37.45;100538.00;5437117;32;34604;-72
2023/10/23 10:23:08;;;;;;;;;;;;;;;24.40;35.23;100534.75;5429447;32;35072;-72
2023/10/23 10:26:10;;;;;;;;;;;;;;;23.94;36.00;100533.66;5430399;32;36112;-71
2023/10/23 10:29:12;;;;;;;;;;;;;;;24.55;34.31;100520.72;5421913;32;34892;-72
2023/10/23 10:32:14;;;;;;;;;;;;;;;23.16;37.33;100522.00;5425144;32;34637;-70
2023/10/23 10:35:26;;;;;;;;;;;;;;;23.16;38.20;100522.84;5427186;32;34181;-69
2023/10/23 10:38:43;;;;;;;;;;;;;;;23.83;36.80;100520.38;5431889;32;34207;-72
2023/10/23 10:41:45;;;;;;;;;;;;;;;22.93;38.92;100519.53;5442173;32;35398;-69
2023/10/23 10:44:53;;;;;;;;;;;;;;;25.10;34.38;100509.16;5446748;32;34619;-71
2023/10/23 10:47:56;;;;;;;;;;;;;;;24.85;35.22;100508.81;5442011;32;34578;-70
2023/10/23 10:50:58;;;;;;;;;;;;;;;23.04;38.32;100512.34;5422899;32;35149;-71
2023/10/23 10:54:05;;;;;;;;;;;;;;;22.59;39.63;100516.25;5445834;32;34870;-72
2023/10/23 10:57:13;;;;;;;;;;;;;;;23.82;37.18;100507.97;5427755;32;35313;-70
2023/10/23 11:00:15;;;;;;;;;;;;;;;22.13;40.44;100508.69;5429499;32;35652;-70
2023/10/23 11:03:17;;;;;;;;;;;;;;;23.43;38.16;100502.56;5439132;32;34797;-70
2023/10/23 11:06:19;;;;;;;;;;;;;;;24.00;37.31;100506.25;5435623;32;34965;-70
2023/10/23 11:09:21;;;;;;;;;;;;;;;23.69;37.97;100513.59;5443032;32;35547;-70
2023/10/23 11:12:25;;;;;;;;;;;;;;;23.49;38.22;100510.88;5438432;32;35590;-70
2023/10/23 11:15:27;;;;;;;;;;;;;;;22.63;40.19;100515.00;5445248;32;34670;-72
2023/10/23 11:18:29;;;;;;;;;;;;;;;23.09;39.38;100504.75;5441951;32;35166;-69
2023/10/23 11:21:32;;;;;;;;;;;;;;;22.35;41.20;100508.53;5445561;32;34645;-69
2023/10/23 11:24:34;;;;;;;;;;;;;;;22.23;41.82;100506.91;5443958;32;35005;-71
2023/10/23 11:27:37;;;;;;;;;;;;;;;23.83;39.32;100496.22;5451609;32;34781;-69
2023/10/23 11:30:46;;;;;;;;;;;;;;;23.35;40.29;100489.00;5448375;32;34608;-70
2023/10/23 11:33:52;;;;;;;;;;;;;;;23.41;40.87;100491.97;5439990;32;34504;-70
2023/10/23 11:36:54;;;;;;;;;;;;;;;23.80;39.72;100489.31;5444368;32;34367;-71
2023/10/23 11:39:56;;;;;;;;;;;;;;;22.40;42.44;100481.34;5433588;32;35095;-71
2023/10/23 11:42:58;;;;;;;;;;;;;;;22.39;42.68;100468.94;5420443;32;34789;-70
2023/10/23 11:46:00;;;;;;;;;;;;;;;22.80;42.03;100481.37;5437226;32;34413;-70
2023/10/23 11:49:05;;;;;;;;;;;;;;;23.31;41.09;100476.84;5424766;32;34736;-69
2023/10/23 11:52:07;;;;;;;;;;;;;;;21.46;45.17;100472.38;5446012;32;35393;-71
2023/10/23 11:55:10;;;;;;;;;;;;;;;21.82;44.67;100464.91;5441013;32;34318;-70
2023/10/23 11:58:12;;;;;;;;;;;;;;;22.36;43.50;100453.16;5446455;32;35213;-70
2023/10/23 12:01:14;;;;;;;;;;;;;;;22.80;42.98;100445.69;5437692;32;34307;-70
2023/10/23 12:04:16;;;;;;;;;;;;;;;22.59;43.55;100443.09;5443512;32;35434;-70
2023/10/23 12:07:19;;;;;;;;;;;;;;;22.09;44.58;100425.12;5441103;32;35061;-69
2023/10/23 12:10:21;;;;;;;;;;;;;;;21.46;46.27;100431.44;5431530;32;35157;-71
2023/10/23 12:13:24;;;;;;;;;;;;;;;23.14;41.97;100406.00;5423757;32;35010;-71
2023/10/23 12:16:27;;;;;;;;;;;;;;;23.98;40.15;100414.28;5441341;32;35538;-70
2023/10/23 12:19:29;;;;;;;;;;;;;;;24.30;39.44;100404.00;5431007;32;34759;-71
2023/10/23 12:22:31;;;;;;;;;;;;;;;23.94;40.34;100410.19;5427396;32;34386;-70
2023/10/23 12:25:33;;;;;;;;;;;;;;;23.40;41.02;100415.19;5453664;32;34453;-72
2023/10/23 12:28:35;;;;;;;;;;;;;;;23.20;41.65;100416.19;5434803;32;34758;-69
2023/10/23 12:31:37;;;;;;;;;;;;;;;22.77;42.63;100408.47;5440128;32;34216;-71
2023/10/23 12:35:03;;;;;;;;;;;;;;;22.73;42.90;100407.03;5440522;32;34642;-70
2023/10/23 12:38:05;;;;;;;;;;;;;;;23.06;41.64;100408.56;5439899;32;33791;-71
2023/10/23 12:41:07;;;;;;;;;;;;;;;22.12;43.18;100418.66;5444888;32;35252;-70
2023/10/23 12:44:09;;;;;;;;;;;;;;;23.41;40.56;100413.34;5426517;32;34181;-69
2023/10/23 12:47:11;;;;;;;;;;;;;;;22.55;42.33;100415.75;5426607;32;34986;-69
2023/10/23 12:50:13;;;;;;;;;;;;;;;23.09;41.78;100411.78;5443981;32;35571;-71
2023/10/23 12:53:15;;;;;;;;;;;;;;;22.73;42.77;100417.75;5440893;32;34610;-71
2023/10/23 12:56:17;;;;;;;;;;;;;;;23.35;41.50;100405.88;5431458;32;34242;-69
2023/10/23 12:59:19;;;;;;;;;;;;;;;24.41;39.42;100411.06;5425410;32;34597;-69
2023/10/23 13:02:21;;;;;;;;;;;;;;;25.80;35.99;100405.25;5426677;32;34443;-71
2023/10/23 13:05:23;;;;;;;;;;;;;;;25.86;36.49;100403.78;5439352;32;35288;-70
2023/10/23 13:08:25;;;;;;;;;;;;;;;26.11;35.95;100402.06;5442937;32;34968;-71
2023/10/23 13:11:30;;;;;;;;;;;;;;;25.98;37.46;100404.34;5443521;32;34384;-70
2023/10/23 13:14:32;;;;;;;;;;;;;;;27.27;33.71;100379.75;5425583;32;34836;-72
2023/10/23 13:17:34;;;;;;;;;;;;;;;31.27;28.23;100364.03;5438934;32;35532;-71
2023/10/23 13:20:36;;;;;;;;;;;;;;;33.47;24.56;100358.63;5440419;32;34934;-69
2023/10/23 13:23:58;;;;;;;;;;;;;;;32.37;25.65;100359.81;5442238;32;35202;-72
2023/10/23 13:27:00;;;;;;;;;;;;;;;31.95;26.28;100366.25;5440131;32;35425;-72
2023/10/23 13:30:04;;;;;;;;;;;;;;;28.03;32.17;100367.69;5425900;32;34659;-71
2023/10/23 13:33:06;;;;;;;;;;;;;;;29.18;30.50;100361.75;5442128;32;34265;-71
2023/10/23 13:36:09;;;;;;;;;;;;;;;27.06;33.48;100368.59;5441157;32;34604;-70
2023/10/23 13:39:11;;;;;;;;;;;;;;;25.84;35.99;100371.63;5442702;32;35010;-70
2023/10/23 13:42:13;;;;;;;;;;;;;;;23.50;40.86;100375.78;5439326;32;34205;-70
2023/10/23 13:45:15;;;;;;;;;;;;;;;23.87;40.25;100377.72;5437165;32;34132;-71
2023/10/23 13:48:18;;;;;;;;;;;;;;;24.63;38.69;100377.56;5441784;32;36020;-71
2023/10/23 13:51:20;;;;;;;;;;;;;;;24.16;40.03;100383.00;5434433;32;34542;-69
2023/10/23 13:54:23;;;;;;;;;;;;;;;23.02;42.79;100378.50;5444600;32;35390;-70
2023/10/23 13:57:25;;;;;;;;;;;;;;;22.50;44.02;100382.31;5440264;32;33928;-69
2023/10/23 14:00:30;;;;;;;;;;;;;;;23.15;42.73;100370.16;5444976;32;35022;-69
2023/10/23 14:03:32;;;;;;;;;;;;;;;22.17;45.20;100379.81;5420133;32;35163;-69
2023/10/23 14:06:34;;;;;;;;;;;;;;;21.78;46.18;100373.38;5445029;32;34321;-71
2023/10/23 14:09:36;;;;;;;;;;;;;;;22.78;44.31;100372.63;5429475;32;34593;-70
2023/10/23 14:12:51;;;;;;;;;;;;;;;22.54;44.54;100373.88;5427418;32;34909;-72
2023/10/23 14:15:53;;;;;;;;;;;;;;;22.30;45.46;100373.38;5439705;32;34903;-70
2023/10/23 14:18:56;;;;;;;;;;;;;;;21.66;47.48;100371.75;5441686;32;34283;-73
2023/10/23 14:21:58;;;;;;;;;;;;;;;21.48;48.28;100371.50;5447007;32;35617;-71
2023/10/23 14:25:00;;;;;;;;;;;;;;;21.81;47.29;100364.22;5428226;32;34422;-71
2023/10/23 14:28:03;;;;;;;;;;;;;;;21.85;47.34;100363.00;5434316;32;35105;-69
2023/10/23 14:31:05;;;;;;;;;;;;;;;21.35;49.18;100365.50;5443069;32;34334;-71
2023/10/23 14:34:06;;;;;;;;;;;;;;;21.56;48.74;100355.63;5441935;32;34625;-70
2023/10/23 14:37:11;;;;;;;;;;;;;;;22.22;47.27;100352.66;5444876;32;34311;-69
2023/10/23 14:40:13;;;;;;;;;;;;;;;22.33;46.75;100349.00;5441695;32;34281;-70
2023/10/23 14:43:15;;;;;;;;;;;;;;;21.96;48.38;100356.69;5446462;32;34603;-70
2023/10/23 14:46:17;;;;;;;;;;;;;;;22.46;46.51;100341.56;5441653;32;35149;-70
2023/10/23 14:49:21;;;;;;;;;;;;;;;21.78;48.54;100349.31;5441508;32;34642;-72
2023/10/23 14:52:23;;;;;;;;;;;;;;;21.96;48.06;100344.19;5445955;32;34170;-70
2023/10/23 14:55:27;;;;;;;;;;;;;;;21.62;49.11;100348.91;5435755;32;34225;-70
2023/10/23 14:58:29;;;;;;;;;;;;;;;21.55;49.44;100345.06;5446606;32;34909;-69
2023/10/23 15:01:34;;;;;;;;;;;;;;;22.08;47.50;100348.44;5438273;32;34981;-70
2023/10/23 15:04:36;;;;;;;;;;;;;;;21.36;49.78;100351.16;5444074;32;35088;-71
2023/10/23 15:07:38;;;;;;;;;;;;;;;21.39;49.74;100353.56;5441526;32;34762;-72
2023/10/23 15:10:40;;;;;;;;;;;;;;;21.19;50.44;100362.37;5440871;32;35216;-70
2023/10/23 15:13:42;;;;;;;;;;;;;;;20.87;51.10;100355.22;5417765;32;35019;-70
2023/10/23 15:16:44;;;;;;;;;;;;;;;21.21;50.69;100349.75;5441973;32;34783;-72
2023/10/23 15:19:47;;;;;;;;;;;;;;;21.84;48.58;100348.78;5445467;32;34944;-70
2023/10/23 15:22:49;;;;;;;;;;;;;;;21.90;48.22;100342.06;5427355;32;34721;-71
2023/10/23 15:25:53;;;;;;;;;;;;;;;22.05;47.84;100342.53;5434967;32;35369;-70
2023/10/23 15:28:55;;;;;;;;;;;;;;;21.57;49.34;100349.31;5440201;32;34544;-70
2023/10/23 15:31:57;;;;;;;;;;;;;;;21.66;48.92;100346.84;5441495;32;34671;-71
2023/10/23 15:34:59;;;;;;;;;;;;;;;21.78;48.74;100345.78;5446530;32;34360;-70
2023/10/23 15:38:01;;;;;;;;;;;;;;;21.56;49.27;100349.44;5439338;32;35339;-70